Hanjin Xiamen — 3EJL6 — position and weather

sailwx.info

Track history (hours):
 
Tides and Currents Weather Stations Pressure Air Temp Water Temp Dewpoint Dewpoint Depression Visibility Wind Speed Wind Dir Waves Ship Positions

Hanjin Xiamen

Last reported at 2017-Oct-09 22:47 UTC. Time now 2017-Oct-20 05:29 UTC.
Position N 31°05' E 122°27'.
Warning: this ship's position is 10 days out of date.

Length 304 m; draft 10.1 m.

Type: Ship (hazmat cat A). MMSI: 372557000.

Date/timePositionNaut miles runAvg speedWind from/ knotsBaromVisibWave heightAir tempDewpointWater temp
2017-Oct-09 22:47N 31°05' E 122°27'310.5
2017-Oct-09 22:30N 31°06' E 122°24'713.5
2017-Oct-09 22:01N 31°08' E 122°16'714.9
2017-Oct-09 21:30N 31°12' E 122°09'714.5
2017-Oct-09 21:01N 31°15' E 122°01'714.3
2017-Oct-09 20:30N 31°16' E 121°53'713.8
2017-Oct-09 20:00N 31°18' E 121°45'611.5
2017-Oct-09 19:30N 31°21' E 121°39'4 8.3
2017-Oct-09 19:00N 31°23' E 121°35'0 0.3
2017-Oct-09 18:29N 31°23' E 121°35'0 0.0
2017-Oct-09 17:59N 31°23' E 121°35'0 0.0
2017-Oct-09 17:29N 31°23' E 121°35'0 0.0
2017-Oct-09 16:59N 31°23' E 121°35'0 0.0
2017-Oct-09 16:29N 31°23' E 121°35'0 0.0
2017-Oct-09 15:59N 31°23' E 121°35'0 0.0
2017-Oct-09 15:29N 31°23' E 121°35'0 0.0
2017-Oct-09 14:59N 31°23' E 121°35'0 0.0
2017-Oct-09 14:29N 31°23' E 121°35'0 0.0
2017-Oct-09 13:59N 31°23' E 121°35'0 0.0
2017-Oct-09 13:29N 31°23' E 121°35'0 0.0
2017-Oct-09 12:59N 31°23' E 121°35'0 0.0
2017-Oct-09 12:29N 31°23' E 121°35'0 0.0
2017-Oct-09 11:59N 31°23' E 121°35'0 0.0
2017-Oct-09 11:29N 31°23' E 121°35'0 0.0
2017-Oct-09 10:59N 31°23' E 121°35'0 0.0
2017-Oct-09 10:29N 31°23' E 121°35'0 0.0
2017-Oct-09 09:59N 31°23' E 121°35'0 0.0
2017-Oct-09 09:29N 31°23' E 121°35'0 0.0
2017-Oct-09 08:59N 31°23' E 121°35'0 0.0
2017-Oct-09 08:29N 31°23' E 121°35'0 0.0
2017-Oct-09 07:59N 31°23' E 121°35'0 0.0
2017-Oct-09 07:29N 31°23' E 121°35'0 0.0
2017-Oct-09 06:59N 31°23' E 121°35'0 0.8
2017-Oct-09 06:31N 31°23' E 121°34'1 1.6
2017-Oct-09 06:00N 31°24' E 121°34'3 6.7
2017-Oct-09 05:30N 31°22' E 121°38'4 8.5
2017-Oct-09 05:00N 31°20' E 121°42'611.0
2017-Oct-09 04:30N 31°18' E 121°48'5 9.5
2017-Oct-09 04:01N 31°16' E 121°53'510.7
2017-Oct-09 03:30N 31°15' E 121°59'612.7
2017-Oct-09 03:01N 31°14' E 122°06'612.8
2017-Oct-09 02:30N 31°10' E 122°12'611.8
2017-Oct-09 02:00N 31°06' E 122°18'611.2
2017-Oct-09 01:30N 31°06' E 122°25'5 9.1
2017-Oct-09 01:00N 31°07' E 122°30'611.8
2017-Oct-09 00:30N 31°07' E 122°37'5 9.2
2017-Oct-08 23:58N 31°09' E 122°42'0 0.0
2017-Oct-08 17:27N 31°09' E 122°42'0 0.2
2017-Oct-08 16:48N 31°09' E 122°42'0 0.1
2017-Oct-08 14:42N 31°09' E 122°42'50 6.0
2017-Oct-08 06:17N 30°20' E 122°52'13 9.3
2017-Oct-08 04:52N 30°07' E 122°49'2410.1
2017-Oct-08 02:27N 29°45' E 122°35'  
Track history (hours):
 
Tides and Currents Weather Stations Pressure Air Temp Water Temp Dewpoint Dewpoint Depression Visibility Wind Speed Wind Dir Waves Ship Positions

Hanjin Xiamen

Last reported at 2017-Oct-09 22:47 UTC. Time now 2017-Oct-20 05:29 UTC.
Position N 31°05' E 122°27'.
Warning: this ship's position is 10 days out of date.

Length 304 m; draft 10.1 m.

Type: Ship (hazmat cat A). MMSI: 372557000.

Date/timePositionNaut miles runAvg speedWind from/ knotsBaromVisibWave heightAir tempDewpointWater temp
2017-Oct-09 22:47N 31°05' E 122°27'310.5
2017-Oct-09 22:30N 31°06' E 122°24'713.5
2017-Oct-09 22:01N 31°08' E 122°16'714.9
2017-Oct-09 21:30N 31°12' E 122°09'714.5
2017-Oct-09 21:01N 31°15' E 122°01'714.3
2017-Oct-09 20:30N 31°16' E 121°53'713.8
2017-Oct-09 20:00N 31°18' E 121°45'611.5
2017-Oct-09 19:30N 31°21' E 121°39'4 8.3
2017-Oct-09 19:00N 31°23' E 121°35'0 0.3
2017-Oct-09 18:29N 31°23' E 121°35'0 0.0
2017-Oct-09 17:59N 31°23' E 121°35'0 0.0
2017-Oct-09 17:29N 31°23' E 121°35'0 0.0
2017-Oct-09 16:59N 31°23' E 121°35'0 0.0
2017-Oct-09 16:29N 31°23' E 121°35'0 0.0
2017-Oct-09 15:59N 31°23' E 121°35'0 0.0
2017-Oct-09 15:29N 31°23' E 121°35'0 0.0
2017-Oct-09 14:59N 31°23' E 121°35'0 0.0
2017-Oct-09 14:29N 31°23' E 121°35'0 0.0
2017-Oct-09 13:59N 31°23' E 121°35'0 0.0
2017-Oct-09 13:29N 31°23' E 121°35'0 0.0
2017-Oct-09 12:59N 31°23' E 121°35'0 0.0
2017-Oct-09 12:29N 31°23' E 121°35'0 0.0
2017-Oct-09 11:59N 31°23' E 121°35'0 0.0
2017-Oct-09 11:29N 31°23' E 121°35'0 0.0
2017-Oct-09 10:59N 31°23' E 121°35'0 0.0
2017-Oct-09 10:29N 31°23' E 121°35'0 0.0
2017-Oct-09 09:59N 31°23' E 121°35'0 0.0
2017-Oct-09 09:29N 31°23' E 121°35'0 0.0
2017-Oct-09 08:59N 31°23' E 121°35'0 0.0
2017-Oct-09 08:29N 31°23' E 121°35'0 0.0
2017-Oct-09 07:59N 31°23' E 121°35'0 0.0
2017-Oct-09 07:29N 31°23' E 121°35'0 0.0
2017-Oct-09 06:59N 31°23' E 121°35'0 0.8
2017-Oct-09 06:31N 31°23' E 121°34'1 1.6
2017-Oct-09 06:00N 31°24' E 121°34'3 6.7
2017-Oct-09 05:30N 31°22' E 121°38'4 8.5
2017-Oct-09 05:00N 31°20' E 121°42'611.0
2017-Oct-09 04:30N 31°18' E 121°48'5 9.5
2017-Oct-09 04:01N 31°16' E 121°53'510.7
2017-Oct-09 03:30N 31°15' E 121°59'612.7
2017-Oct-09 03:01N 31°14' E 122°06'612.8
2017-Oct-09 02:30N 31°10' E 122°12'611.8
2017-Oct-09 02:00N 31°06' E 122°18'611.2
2017-Oct-09 01:30N 31°06' E 122°25'5 9.1
2017-Oct-09 01:00N 31°07' E 122°30'611.8
2017-Oct-09 00:30N 31°07' E 122°37'5 9.2
2017-Oct-08 23:58N 31°09' E 122°42'0 0.0
2017-Oct-08 17:27N 31°09' E 122°42'0 0.2
2017-Oct-08 16:48N 31°09' E 122°42'0 0.1
2017-Oct-08 14:42N 31°09' E 122°42'50 6.0
2017-Oct-08 06:17N 30°20' E 122°52'13 9.3
2017-Oct-08 04:52N 30°07' E 122°49'2410.1
2017-Oct-08 02:27N 29°45' E 122°35'  

Dump ship's entire track history